sensor_id;sensor_type;location;lat;lon;timestamp;P1;durP1;ratioP1;P2;durP2;ratioP2
56860;SDS011;42744;51.094;3.490;2022-10-16T00:00:19;1.50;;;0.90;;
56860;SDS011;42744;51.094;3.490;2022-10-16T00:02:45;2.27;;;1.00;;
56860;SDS011;42744;51.094;3.490;2022-10-16T00:05:10;2.27;;;0.83;;
56860;SDS011;42744;51.094;3.490;2022-10-16T00:07:36;2.43;;;1.00;;
56860;SDS011;42744;51.094;3.490;2022-10-16T00:10:02;2.00;;;1.23;;
56860;SDS011;42744;51.094;3.490;2022-10-16T00:12:28;2.30;;;1.23;;
56860;SDS011;42744;51.094;3.490;2022-10-16T00:14:54;1.97;;;0.80;;
56860;SDS011;42744;51.094;3.490;2022-10-16T00:17:20;2.20;;;1.00;;
56860;SDS011;42744;51.094;3.490;2022-10-16T00:19:46;2.30;;;0.80;;
56860;SDS011;42744;51.094;3.490;2022-10-16T00:22:12;2.73;;;0.97;;
56860;SDS011;42744;51.094;3.490;2022-10-16T00:24:38;2.43;;;1.10;;
56860;SDS011;42744;51.094;3.490;2022-10-16T00:27:04;2.73;;;0.93;;
56860;SDS011;42744;51.094;3.490;2022-10-16T00:29:30;1.17;;;0.67;;
56860;SDS011;42744;51.094;3.490;2022-10-16T00:31:56;1.80;;;1.10;;
56860;SDS011;42744;51.094;3.490;2022-10-16T00:34:22;1.47;;;1.00;;
56860;SDS011;42744;51.094;3.490;2022-10-16T00:36:48;3.33;;;1.07;;
56860;SDS011;42744;51.094;3.490;2022-10-16T00:39:14;1.60;;;1.40;;
56860;SDS011;42744;51.094;3.490;2022-10-16T00:41:40;2.87;;;1.20;;
56860;SDS011;42744;51.094;3.490;2022-10-16T00:44:52;7.83;;;1.40;;
56860;SDS011;42744;51.094;3.490;2022-10-16T00:47:11;2.07;;;1.10;;
56860;SDS011;42744;51.094;3.490;2022-10-16T00:49:42;2.50;;;1.13;;
56860;SDS011;42744;51.094;3.490;2022-10-16T00:52:08;2.90;;;1.10;;
56860;SDS011;42744;51.094;3.490;2022-10-16T00:54:36;1.57;;;1.00;;
56860;SDS011;42744;51.094;3.490;2022-10-16T00:57:03;4.63;;;1.03;;
56860;SDS011;42744;51.094;3.490;2022-10-16T00:59:35;1.57;;;1.13;;
56860;SDS011;42744;51.094;3.490;2022-10-16T01:02:04;2.67;;;1.30;;
56860;SDS011;42744;51.094;3.490;2022-10-16T01:04:32;2.63;;;1.10;;
56860;SDS011;42744;51.094;3.490;2022-10-16T01:10:07;1.00;;;0.80;;
56860;SDS011;42744;51.094;3.490;2022-10-16T01:15:42;2.03;;;0.90;;
56860;SDS011;42744;51.094;3.490;2022-10-16T01:21:16;2.07;;;0.83;;
56860;SDS011;42744;51.094;3.490;2022-10-16T01:23:51;4.20;;;1.53;;
56860;SDS011;42744;51.094;3.490;2022-10-16T01:32:17;1.97;;;1.10;;
56860;SDS011;42744;51.094;3.490;2022-10-16T01:34:52;2.77;;;1.03;;
56860;SDS011;42744;51.094;3.490;2022-10-16T01:37:29;4.53;;;1.33;;
56860;SDS011;42744;51.094;3.490;2022-10-16T01:40:02;2.30;;;1.10;;
56860;SDS011;42744;51.094;3.490;2022-10-16T01:42:35;1.67;;;1.00;;
56860;SDS011;42744;51.094;3.490;2022-10-16T01:45:05;2.40;;;1.30;;
56860;SDS011;42744;51.094;3.490;2022-10-16T01:47:33;2.00;;;0.90;;
56860;SDS011;42744;51.094;3.490;2022-10-16T01:50:01;4.17;;;1.00;;
56860;SDS011;42744;51.094;3.490;2022-10-16T01:52:30;3.00;;;1.30;;
56860;SDS011;42744;51.094;3.490;2022-10-16T01:54:58;2.50;;;0.90;;
56860;SDS011;42744;51.094;3.490;2022-10-16T01:57:30;3.13;;;1.17;;
56860;SDS011;42744;51.094;3.490;2022-10-16T02:00:00;1.30;;;0.90;;
56860;SDS011;42744;51.094;3.490;2022-10-16T02:02:37;4.23;;;1.17;;
56860;SDS011;42744;51.094;3.490;2022-10-16T02:05:11;1.97;;;0.90;;
56860;SDS011;42744;51.094;3.490;2022-10-16T02:07:50;2.50;;;1.37;;
56860;SDS011;42744;51.094;3.490;2022-10-16T02:10:17;1.57;;;1.13;;
56860;SDS011;42744;51.094;3.490;2022-10-16T02:12:55;6.97;;;1.40;;
56860;SDS011;42744;51.094;3.490;2022-10-16T02:15:24;3.90;;;1.47;;
56860;SDS011;42744;51.094;3.490;2022-10-16T02:17:50;2.80;;;1.10;;
56860;SDS011;42744;51.094;3.490;2022-10-16T02:20:16;2.17;;;1.10;;
56860;SDS011;42744;51.094;3.490;2022-10-16T02:22:46;1.40;;;1.20;;
56860;SDS011;42744;51.094;3.490;2022-10-16T02:25:32;4.97;;;1.13;;
56860;SDS011;42744;51.094;3.490;2022-10-16T02:28:04;2.53;;;1.13;;
56860;SDS011;42744;51.094;3.490;2022-10-16T02:30:36;3.13;;;1.33;;
56860;SDS011;42744;51.094;3.490;2022-10-16T02:33:07;4.67;;;1.50;;
56860;SDS011;42744;51.094;3.490;2022-10-16T02:35:35;3.83;;;1.37;;
56860;SDS011;42744;51.094;3.490;2022-10-16T02:38:02;3.13;;;1.20;;
56860;SDS011;42744;51.094;3.490;2022-10-16T02:40:29;3.17;;;1.27;;
56860;SDS011;42744;51.094;3.490;2022-10-16T02:42:55;2.77;;;1.10;;
56860;SDS011;42744;51.094;3.490;2022-10-16T02:45:22;2.37;;;1.20;;
56860;SDS011;42744;51.094;3.490;2022-10-16T02:47:48;2.13;;;1.40;;
56860;SDS011;42744;51.094;3.490;2022-10-16T02:50:14;3.17;;;1.30;;
56860;SDS011;42744;51.094;3.490;2022-10-16T02:52:40;3.20;;;1.90;;
56860;SDS011;42744;51.094;3.490;2022-10-16T02:55:10;2.50;;;1.77;;
56860;SDS011;42744;51.094;3.490;2022-10-16T02:57:36;2.90;;;2.20;;
56860;SDS011;42744;51.094;3.490;2022-10-16T03:00:03;4.27;;;2.13;;
56860;SDS011;42744;51.094;3.490;2022-10-16T03:02:30;6.23;;;2.07;;
56860;SDS011;42744;51.094;3.490;2022-10-16T03:04:56;9.47;;;3.37;;
56860;SDS011;42744;51.094;3.490;2022-10-16T03:07:22;2.23;;;1.97;;
56860;SDS011;42744;51.094;3.490;2022-10-16T03:09:48;5.27;;;2.57;;
56860;SDS011;42744;51.094;3.490;2022-10-16T03:12:14;9.83;;;2.83;;
56860;SDS011;42744;51.094;3.490;2022-10-16T03:14:40;2.73;;;2.17;;
56860;SDS011;42744;51.094;3.490;2022-10-16T03:17:06;3.00;;;1.90;;
56860;SDS011;42744;51.094;3.490;2022-10-16T03:19:32;2.97;;;1.70;;
56860;SDS011;42744;51.094;3.490;2022-10-16T03:21:58;3.23;;;1.80;;
56860;SDS011;42744;51.094;3.490;2022-10-16T03:24:24;4.97;;;1.60;;
56860;SDS011;42744;51.094;3.490;2022-10-16T03:26:50;3.90;;;1.63;;
56860;SDS011;42744;51.094;3.490;2022-10-16T03:29:15;3.50;;;1.67;;
56860;SDS011;42744;51.094;3.490;2022-10-16T03:31:42;5.70;;;1.77;;
56860;SDS011;42744;51.094;3.490;2022-10-16T03:34:07;3.97;;;1.70;;
56860;SDS011;42744;51.094;3.490;2022-10-16T03:36:33;3.73;;;2.20;;
56860;SDS011;42744;51.094;3.490;2022-10-16T03:39:00;3.20;;;1.70;;
56860;SDS011;42744;51.094;3.490;2022-10-16T03:41:26;2.33;;;1.60;;
56860;SDS011;42744;51.094;3.490;2022-10-16T03:43:52;4.00;;;1.80;;
56860;SDS011;42744;51.094;3.490;2022-10-16T03:46:18;2.60;;;2.00;;
56860;SDS011;42744;51.094;3.490;2022-10-16T03:48:44;3.37;;;1.90;;
56860;SDS011;42744;51.094;3.490;2022-10-16T03:51:10;3.67;;;1.87;;
56860;SDS011;42744;51.094;3.490;2022-10-16T03:53:36;4.87;;;1.70;;
56860;SDS011;42744;51.094;3.490;2022-10-16T03:56:02;2.37;;;1.30;;
56860;SDS011;42744;51.094;3.490;2022-10-16T03:58:28;4.37;;;1.40;;
56860;SDS011;42744;51.094;3.490;2022-10-16T04:00:54;4.13;;;1.80;;
56860;SDS011;42744;51.094;3.490;2022-10-16T04:03:20;2.83;;;1.30;;
56860;SDS011;42744;51.094;3.490;2022-10-16T04:05:46;2.70;;;1.40;;
56860;SDS011;42744;51.094;3.490;2022-10-16T04:08:12;5.53;;;1.40;;
56860;SDS011;42744;51.094;3.490;2022-10-16T04:10:38;2.80;;;1.37;;
56860;SDS011;42744;51.094;3.490;2022-10-16T04:13:04;3.73;;;1.37;;
56860;SDS011;42744;51.094;3.490;2022-10-16T04:15:31;4.90;;;1.30;;
56860;SDS011;42744;51.094;3.490;2022-10-16T04:17:57;4.63;;;1.33;;
56860;SDS011;42744;51.094;3.490;2022-10-16T04:20:22;3.47;;;1.10;;
56860;SDS011;42744;51.094;3.490;2022-10-16T04:22:48;3.47;;;1.10;;
56860;SDS011;42744;51.094;3.490;2022-10-16T04:25:15;2.40;;;1.10;;
56860;SDS011;42744;51.094;3.490;2022-10-16T04:27:41;2.47;;;1.33;;
56860;SDS011;42744;51.094;3.490;2022-10-16T04:30:07;2.10;;;1.33;;
56860;SDS011;42744;51.094;3.490;2022-10-16T04:32:33;2.67;;;1.50;;
56860;SDS011;42744;51.094;3.490;2022-10-16T04:34:59;7.57;;;1.40;;
56860;SDS011;42744;51.094;3.490;2022-10-16T04:37:26;2.03;;;1.10;;
56860;SDS011;42744;51.094;3.490;2022-10-16T04:39:53;2.73;;;1.30;;
56860;SDS011;42744;51.094;3.490;2022-10-16T04:42:19;4.57;;;1.73;;
56860;SDS011;42744;51.094;3.490;2022-10-16T04:44:46;3.27;;;1.27;;
56860;SDS011;42744;51.094;3.490;2022-10-16T04:47:12;3.10;;;1.30;;
56860;SDS011;42744;51.094;3.490;2022-10-16T04:49:39;3.60;;;1.20;;
56860;SDS011;42744;51.094;3.490;2022-10-16T04:52:04;2.37;;;1.20;;
56860;SDS011;42744;51.094;3.490;2022-10-16T04:54:31;5.17;;;1.43;;
56860;SDS011;42744;51.094;3.490;2022-10-16T04:56:57;3.77;;;1.50;;
56860;SDS011;42744;51.094;3.490;2022-10-16T04:59:23;3.97;;;1.40;;
56860;SDS011;42744;51.094;3.490;2022-10-16T05:01:49;5.70;;;1.20;;
56860;SDS011;42744;51.094;3.490;2022-10-16T05:04:15;3.20;;;1.50;;
56860;SDS011;42744;51.094;3.490;2022-10-16T05:06:41;5.27;;;1.50;;
56860;SDS011;42744;51.094;3.490;2022-10-16T05:09:08;4.03;;;1.60;;
56860;SDS011;42744;51.094;3.490;2022-10-16T05:11:34;4.77;;;1.70;;
56860;SDS011;42744;51.094;3.490;2022-10-16T05:14:00;4.73;;;1.67;;
56860;SDS011;42744;51.094;3.490;2022-10-16T05:16:27;2.03;;;1.50;;
56860;SDS011;42744;51.094;3.490;2022-10-16T05:18:53;7.67;;;2.13;;
56860;SDS011;42744;51.094;3.490;2022-10-16T05:21:19;3.83;;;1.70;;
56860;SDS011;42744;51.094;3.490;2022-10-16T05:23:46;3.13;;;2.37;;
56860;SDS011;42744;51.094;3.490;2022-10-16T05:26:12;4.33;;;2.30;;
56860;SDS011;42744;51.094;3.490;2022-10-16T05:28:37;5.50;;;1.90;;
56860;SDS011;42744;51.094;3.490;2022-10-16T05:31:07;3.30;;;1.90;;
56860;SDS011;42744;51.094;3.490;2022-10-16T05:33:34;4.47;;;1.93;;
56860;SDS011;42744;51.094;3.490;2022-10-16T05:36:01;4.73;;;2.13;;
56860;SDS011;42744;51.094;3.490;2022-10-16T05:38:28;5.70;;;2.20;;
56860;SDS011;42744;51.094;3.490;2022-10-16T05:40:54;5.03;;;2.10;;
56860;SDS011;42744;51.094;3.490;2022-10-16T05:43:21;4.10;;;1.90;;
56860;SDS011;42744;51.094;3.490;2022-10-16T05:45:57;7.60;;;1.53;;
56860;SDS011;42744;51.094;3.490;2022-10-16T05:48:27;3.70;;;1.80;;
56860;SDS011;42744;51.094;3.490;2022-10-16T05:51:00;5.73;;;1.90;;
56860;SDS011;42744;51.094;3.490;2022-10-16T05:53:33;3.47;;;1.90;;
56860;SDS011;42744;51.094;3.490;2022-10-16T05:56:00;5.03;;;1.60;;
56860;SDS011;42744;51.094;3.490;2022-10-16T05:58:30;3.33;;;1.73;;
56860;SDS011;42744;51.094;3.490;2022-10-16T06:00:59;4.60;;;1.97;;
56860;SDS011;42744;51.094;3.490;2022-10-16T06:03:27;3.00;;;1.60;;
56860;SDS011;42744;51.094;3.490;2022-10-16T06:05:53;7.07;;;1.50;;
56860;SDS011;42744;51.094;3.490;2022-10-16T06:08:20;3.83;;;1.80;;
56860;SDS011;42744;51.094;3.490;2022-10-16T06:10:48;2.53;;;1.40;;
56860;SDS011;42744;51.094;3.490;2022-10-16T06:13:25;5.37;;;1.57;;
56860;SDS011;42744;51.094;3.490;2022-10-16T06:15:51;4.23;;;1.40;;
56860;SDS011;42744;51.094;3.490;2022-10-16T06:18:17;3.07;;;1.40;;
56860;SDS011;42744;51.094;3.490;2022-10-16T06:20:42;4.03;;;1.80;;
56860;SDS011;42744;51.094;3.490;2022-10-16T06:23:09;1.80;;;1.50;;
56860;SDS011;42744;51.094;3.490;2022-10-16T06:25:35;4.77;;;1.87;;
56860;SDS011;42744;51.094;3.490;2022-10-16T06:28:00;3.50;;;1.57;;
56860;SDS011;42744;51.094;3.490;2022-10-16T06:30:27;3.07;;;1.47;;
56860;SDS011;42744;51.094;3.490;2022-10-16T06:32:52;5.90;;;1.83;;
56860;SDS011;42744;51.094;3.490;2022-10-16T06:35:18;3.37;;;1.70;;
56860;SDS011;42744;51.094;3.490;2022-10-16T06:37:45;4.40;;;1.90;;
56860;SDS011;42744;51.094;3.490;2022-10-16T06:40:11;4.60;;;1.83;;
56860;SDS011;42744;51.094;3.490;2022-10-16T06:42:39;3.87;;;1.70;;
56860;SDS011;42744;51.094;3.490;2022-10-16T06:45:06;6.00;;;2.13;;
56860;SDS011;42744;51.094;3.490;2022-10-16T06:47:32;3.03;;;1.90;;
56860;SDS011;42744;51.094;3.490;2022-10-16T06:49:58;6.57;;;1.87;;
56860;SDS011;42744;51.094;3.490;2022-10-16T06:52:24;4.43;;;1.83;;
56860;SDS011;42744;51.094;3.490;2022-10-16T06:54:52;3.53;;;2.00;;
56860;SDS011;42744;51.094;3.490;2022-10-16T06:57:18;8.43;;;1.93;;
56860;SDS011;42744;51.094;3.490;2022-10-16T06:59:44;5.67;;;2.10;;
56860;SDS011;42744;51.094;3.490;2022-10-16T07:02:10;4.10;;;1.70;;
56860;SDS011;42744;51.094;3.490;2022-10-16T07:04:36;3.00;;;1.87;;
56860;SDS011;42744;51.094;3.490;2022-10-16T07:07:02;3.30;;;2.30;;
56860;SDS011;42744;51.094;3.490;2022-10-16T07:09:28;8.67;;;2.30;;
56860;SDS011;42744;51.094;3.490;2022-10-16T07:11:54;4.70;;;1.97;;
56860;SDS011;42744;51.094;3.490;2022-10-16T07:14:21;3.07;;;2.00;;
56860;SDS011;42744;51.094;3.490;2022-10-16T07:16:47;5.50;;;2.37;;
56860;SDS011;42744;51.094;3.490;2022-10-16T07:19:13;6.47;;;2.33;;
56860;SDS011;42744;51.094;3.490;2022-10-16T07:21:41;3.10;;;2.10;;
56860;SDS011;42744;51.094;3.490;2022-10-16T07:24:10;4.13;;;2.50;;
56860;SDS011;42744;51.094;3.490;2022-10-16T07:26:38;2.80;;;1.90;;
56860;SDS011;42744;51.094;3.490;2022-10-16T07:29:13;3.23;;;1.93;;
56860;SDS011;42744;51.094;3.490;2022-10-16T07:31:41;7.10;;;2.67;;
56860;SDS011;42744;51.094;3.490;2022-10-16T07:34:07;7.13;;;2.37;;
56860;SDS011;42744;51.094;3.490;2022-10-16T07:36:34;4.80;;;2.37;;
56860;SDS011;42744;51.094;3.490;2022-10-16T07:39:00;5.50;;;2.20;;
56860;SDS011;42744;51.094;3.490;2022-10-16T07:41:26;5.00;;;2.07;;
56860;SDS011;42744;51.094;3.490;2022-10-16T07:43:53;5.80;;;2.13;;
56860;SDS011;42744;51.094;3.490;2022-10-16T07:46:20;4.40;;;2.67;;
56860;SDS011;42744;51.094;3.490;2022-10-16T07:48:47;5.13;;;2.23;;
56860;SDS011;42744;51.094;3.490;2022-10-16T07:51:18;5.00;;;1.90;;
56860;SDS011;42744;51.094;3.490;2022-10-16T07:53:45;7.03;;;2.27;;
56860;SDS011;42744;51.094;3.490;2022-10-16T07:56:12;3.80;;;2.10;;
56860;SDS011;42744;51.094;3.490;2022-10-16T07:58:39;6.40;;;2.17;;
56860;SDS011;42744;51.094;3.490;2022-10-16T08:01:06;4.60;;;2.33;;
56860;SDS011;42744;51.094;3.490;2022-10-16T08:03:33;4.57;;;1.80;;
56860;SDS011;42744;51.094;3.490;2022-10-16T08:06:00;7.30;;;1.97;;
56860;SDS011;42744;51.094;3.490;2022-10-16T08:08:27;2.70;;;1.70;;
56860;SDS011;42744;51.094;3.490;2022-10-16T08:10:53;6.17;;;2.33;;
56860;SDS011;42744;51.094;3.490;2022-10-16T08:13:19;5.27;;;2.00;;
56860;SDS011;42744;51.094;3.490;2022-10-16T08:15:46;5.20;;;2.17;;
56860;SDS011;42744;51.094;3.490;2022-10-16T08:18:13;4.70;;;1.80;;
56860;SDS011;42744;51.094;3.490;2022-10-16T08:20:40;7.53;;;2.10;;
56860;SDS011;42744;51.094;3.490;2022-10-16T08:23:06;5.67;;;2.33;;
56860;SDS011;42744;51.094;3.490;2022-10-16T08:25:36;6.77;;;1.70;;
56860;SDS011;42744;51.094;3.490;2022-10-16T08:28:03;4.93;;;1.87;;
56860;SDS011;42744;51.094;3.490;2022-10-16T08:30:30;5.03;;;1.63;;
56860;SDS011;42744;51.094;3.490;2022-10-16T08:32:57;4.93;;;1.73;;
56860;SDS011;42744;51.094;3.490;2022-10-16T08:35:23;5.13;;;2.73;;
56860;SDS011;42744;51.094;3.490;2022-10-16T08:37:49;6.17;;;2.17;;
56860;SDS011;42744;51.094;3.490;2022-10-16T08:50:26;7.93;;;1.97;;
56860;SDS011;42744;51.094;3.490;2022-10-16T08:52:55;4.07;;;1.63;;
56860;SDS011;42744;51.094;3.490;2022-10-16T08:55:35;2.87;;;1.23;;
56860;SDS011;42744;51.094;3.490;2022-10-16T08:58:13;6.33;;;1.77;;
56860;SDS011;42744;51.094;3.490;2022-10-16T09:00:45;3.17;;;1.47;;
56860;SDS011;42744;51.094;3.490;2022-10-16T09:03:17;4.33;;;1.63;;
56860;SDS011;42744;51.094;3.490;2022-10-16T09:05:57;7.30;;;1.43;;
56860;SDS011;42744;51.094;3.490;2022-10-16T09:11:25;9.43;;;2.20;;
56860;SDS011;42744;51.094;3.490;2022-10-16T09:16:56;6.87;;;1.40;;
56860;SDS011;42744;51.094;3.490;2022-10-16T09:19:44;6.70;;;1.67;;
56860;SDS011;42744;51.094;3.490;2022-10-16T09:22:16;5.70;;;1.90;;
56860;SDS011;42744;51.094;3.490;2022-10-16T09:24:43;6.53;;;1.43;;
56860;SDS011;42744;51.094;3.490;2022-10-16T09:27:10;8.83;;;1.53;;
56860;SDS011;42744;51.094;3.490;2022-10-16T09:29:37;5.93;;;1.77;;
56860;SDS011;42744;51.094;3.490;2022-10-16T09:32:12;7.03;;;1.97;;
56860;SDS011;42744;51.094;3.490;2022-10-16T09:34:45;8.77;;;2.10;;
56860;SDS011;42744;51.094;3.490;2022-10-16T09:37:17;4.27;;;1.57;;
56860;SDS011;42744;51.094;3.490;2022-10-16T09:39:46;8.60;;;1.77;;
56860;SDS011;42744;51.094;3.490;2022-10-16T09:42:17;6.03;;;1.40;;
56860;SDS011;42744;51.094;3.490;2022-10-16T09:44:50;4.97;;;1.50;;
56860;SDS011;42744;51.094;3.490;2022-10-16T09:47:25;6.03;;;1.57;;
56860;SDS011;42744;51.094;3.490;2022-10-16T09:49:54;7.73;;;2.03;;
56860;SDS011;42744;51.094;3.490;2022-10-16T09:52:28;6.43;;;2.03;;
56860;SDS011;42744;51.094;3.490;2022-10-16T09:54:55;3.73;;;1.70;;
56860;SDS011;42744;51.094;3.490;2022-10-16T09:57:23;6.90;;;1.77;;
56860;SDS011;42744;51.094;3.490;2022-10-16T09:59:50;5.27;;;1.33;;
56860;SDS011;42744;51.094;3.490;2022-10-16T10:02:19;9.67;;;2.00;;
56860;SDS011;42744;51.094;3.490;2022-10-16T10:04:52;7.87;;;1.73;;
56860;SDS011;42744;51.094;3.490;2022-10-16T10:07:32;5.53;;;1.90;;
56860;SDS011;42744;51.094;3.490;2022-10-16T10:10:04;6.87;;;1.80;;
56860;SDS011;42744;51.094;3.490;2022-10-16T10:12:31;8.33;;;2.00;;
56860;SDS011;42744;51.094;3.490;2022-10-16T10:15:04;11.20;;;1.87;;
56860;SDS011;42744;51.094;3.490;2022-10-16T10:17:49;7.13;;;1.83;;
56860;SDS011;42744;51.094;3.490;2022-10-16T10:20:22;4.70;;;1.50;;
56860;SDS011;42744;51.094;3.490;2022-10-16T10:22:50;11.93;;;1.90;;
56860;SDS011;42744;51.094;3.490;2022-10-16T10:25:23;10.10;;;1.80;;
56860;SDS011;42744;51.094;3.490;2022-10-16T10:36:10;11.13;;;1.63;;
56860;SDS011;42744;51.094;3.490;2022-10-16T10:46:25;8.67;;;1.73;;
56860;SDS011;42744;51.094;3.490;2022-10-16T10:52:23;4.47;;;1.20;;
56860;SDS011;42744;51.094;3.490;2022-10-16T10:57:49;7.67;;;1.50;;
56860;SDS011;42744;51.094;3.490;2022-10-16T11:00:27;7.37;;;1.58;;
56860;SDS011;42744;51.094;3.490;2022-10-16T11:03:42;6.80;;;1.30;;
56860;SDS011;42744;51.094;3.490;2022-10-16T11:05:49;11.17;;;2.40;;
56860;SDS011;42744;51.094;3.490;2022-10-16T11:08:23;6.20;;;0.93;;
56860;SDS011;42744;51.094;3.490;2022-10-16T11:11:10;10.50;;;1.40;;
56860;SDS011;42744;51.094;3.490;2022-10-16T11:13:55;5.67;;;1.43;;
56860;SDS011;42744;51.094;3.490;2022-10-16T11:16:30;6.83;;;1.60;;
56860;SDS011;42744;51.094;3.490;2022-10-16T11:30:39;5.87;;;1.50;;
56860;SDS011;42744;51.094;3.490;2022-10-16T11:33:24;8.53;;;1.67;;
56860;SDS011;42744;51.094;3.490;2022-10-16T11:41:15;9.80;;;1.90;;
56860;SDS011;42744;51.094;3.490;2022-10-16T11:46:31;5.70;;;1.70;;
56860;SDS011;42744;51.094;3.490;2022-10-16T11:49:13;8.68;;;1.60;;
56860;SDS011;42744;51.094;3.490;2022-10-16T11:54:50;7.07;;;1.55;;
56860;SDS011;42744;51.094;3.490;2022-10-16T11:57:26;5.97;;;1.50;;
56860;SDS011;42744;51.094;3.490;2022-10-16T11:59:55;7.50;;;1.87;;
56860;SDS011;42744;51.094;3.490;2022-10-16T12:02:45;8.85;;;1.65;;
56860;SDS011;42744;51.094;3.490;2022-10-16T12:05:27;7.43;;;1.30;;
56860;SDS011;42744;51.094;3.490;2022-10-16T12:08:13;7.53;;;1.27;;
56860;SDS011;42744;51.094;3.490;2022-10-16T12:10:42;8.15;;;1.58;;
56860;SDS011;42744;51.094;3.490;2022-10-16T12:18:38;6.53;;;1.23;;
56860;SDS011;42744;51.094;3.490;2022-10-16T12:21:09;10.15;;;1.42;;
56860;SDS011;42744;51.094;3.490;2022-10-16T12:23:46;9.60;;;1.50;;
56860;SDS011;42744;51.094;3.490;2022-10-16T12:26:14;5.28;;;1.00;;
56860;SDS011;42744;51.094;3.490;2022-10-16T12:28:49;4.28;;;1.23;;
56860;SDS011;42744;51.094;3.490;2022-10-16T12:31:17;5.07;;;1.12;;
56860;SDS011;42744;51.094;3.490;2022-10-16T12:33:52;6.43;;;1.08;;
56860;SDS011;42744;51.094;3.490;2022-10-16T12:36:27;6.50;;;1.17;;
56860;SDS011;42744;51.094;3.490;2022-10-16T12:38:55;7.50;;;1.50;;
56860;SDS011;42744;51.094;3.490;2022-10-16T12:41:29;5.05;;;1.25;;
56860;SDS011;42744;51.094;3.490;2022-10-16T12:44:00;8.38;;;1.40;;
56860;SDS011;42744;51.094;3.490;2022-10-16T12:51:42;3.62;;;1.08;;
56860;SDS011;42744;51.094;3.490;2022-10-16T12:59:59;5.93;;;1.25;;
56860;SDS011;42744;51.094;3.490;2022-10-16T13:11:21;8.60;;;1.27;;
56860;SDS011;42744;51.094;3.490;2022-10-16T13:22:16;2.40;;;0.70;;
56860;SDS011;42744;51.094;3.490;2022-10-16T13:28:05;3.03;;;0.88;;
56860;SDS011;42744;51.094;3.490;2022-10-16T13:30:35;0.88;;;0.55;;
56860;SDS011;42744;51.094;3.490;2022-10-16T13:33:12;2.95;;;0.85;;
56860;SDS011;42744;51.094;3.490;2022-10-16T13:35:51;3.40;;;0.75;;
56860;SDS011;42744;51.094;3.490;2022-10-16T13:38:22;3.62;;;0.90;;
56860;SDS011;42744;51.094;3.490;2022-10-16T13:43:27;4.43;;;0.80;;
56860;SDS011;42744;51.094;3.490;2022-10-16T13:46:03;2.25;;;0.77;;
56860;SDS011;42744;51.094;3.490;2022-10-16T13:48:30;1.73;;;0.62;;
56860;SDS011;42744;51.094;3.490;2022-10-16T13:51:07;3.87;;;1.00;;
56860;SDS011;42744;51.094;3.490;2022-10-16T13:53:39;3.93;;;0.70;;
56860;SDS011;42744;51.094;3.490;2022-10-16T13:56:13;2.97;;;0.57;;
56860;SDS011;42744;51.094;3.490;2022-10-16T13:58:41;5.23;;;0.90;;
56860;SDS011;42744;51.094;3.490;2022-10-16T14:01:18;4.07;;;0.70;;
56860;SDS011;42744;51.094;3.490;2022-10-16T14:03:50;3.33;;;0.80;;
56860;SDS011;42744;51.094;3.490;2022-10-16T14:06:18;1.87;;;0.80;;
56860;SDS011;42744;51.094;3.490;2022-10-16T14:08:50;4.17;;;0.90;;
56860;SDS011;42744;51.094;3.490;2022-10-16T14:11:22;3.83;;;1.10;;
56860;SDS011;42744;51.094;3.490;2022-10-16T14:13:49;4.30;;;1.27;;
56860;SDS011;42744;51.094;3.490;2022-10-16T14:16:17;5.43;;;1.10;;
56860;SDS011;42744;51.094;3.490;2022-10-16T14:18:46;4.37;;;0.80;;
56860;SDS011;42744;51.094;3.490;2022-10-16T14:21:18;4.60;;;1.17;;
56860;SDS011;42744;51.094;3.490;2022-10-16T14:23:45;4.20;;;1.00;;
56860;SDS011;42744;51.094;3.490;2022-10-16T14:28:39;4.77;;;1.20;;
56860;SDS011;42744;51.094;3.490;2022-10-16T14:33:45;3.53;;;1.13;;
56860;SDS011;42744;51.094;3.490;2022-10-16T14:36:15;2.60;;;0.70;;
56860;SDS011;42744;51.094;3.490;2022-10-16T14:41:30;3.63;;;0.70;;
56860;SDS011;42744;51.094;3.490;2022-10-16T14:44:01;2.13;;;0.70;;
56860;SDS011;42744;51.094;3.490;2022-10-16T14:46:35;2.60;;;0.70;;
56860;SDS011;42744;51.094;3.490;2022-10-16T14:49:04;2.63;;;0.53;;
56860;SDS011;42744;51.094;3.490;2022-10-16T14:51:34;4.07;;;0.80;;
56860;SDS011;42744;51.094;3.490;2022-10-16T14:54:00;1.87;;;0.80;;
56860;SDS011;42744;51.094;3.490;2022-10-16T15:04:45;2.27;;;0.80;;
56860;SDS011;42744;51.094;3.490;2022-10-16T15:07:12;3.13;;;1.00;;
56860;SDS011;42744;51.094;3.490;2022-10-16T15:09:37;4.07;;;0.60;;
56860;SDS011;42744;51.094;3.490;2022-10-16T15:12:03;2.90;;;0.60;;
56860;SDS011;42744;51.094;3.490;2022-10-16T15:14:30;3.80;;;0.90;;
56860;SDS011;42744;51.094;3.490;2022-10-16T15:16:56;3.90;;;1.00;;
56860;SDS011;42744;51.094;3.490;2022-10-16T15:19:22;4.67;;;0.87;;
56860;SDS011;42744;51.094;3.490;2022-10-16T15:21:48;2.20;;;0.60;;
56860;SDS011;42744;51.094;3.490;2022-10-16T15:24:14;2.37;;;0.70;;
56860;SDS011;42744;51.094;3.490;2022-10-16T15:26:41;3.10;;;0.87;;
56860;SDS011;42744;51.094;3.490;2022-10-16T15:29:07;5.20;;;2.10;;
56860;SDS011;42744;51.094;3.490;2022-10-16T15:31:33;4.70;;;1.10;;
56860;SDS011;42744;51.094;3.490;2022-10-16T15:34:00;4.67;;;3.17;;
56860;SDS011;42744;51.094;3.490;2022-10-16T15:36:32;5.73;;;4.03;;
56860;SDS011;42744;51.094;3.490;2022-10-16T15:39:02;4.33;;;1.47;;
56860;SDS011;42744;51.094;3.490;2022-10-16T15:41:39;4.20;;;1.53;;
56860;SDS011;42744;51.094;3.490;2022-10-16T15:44:05;6.40;;;3.17;;
56860;SDS011;42744;51.094;3.490;2022-10-16T15:46:31;6.43;;;2.40;;
56860;SDS011;42744;51.094;3.490;2022-10-16T15:48:59;4.63;;;2.30;;
56860;SDS011;42744;51.094;3.490;2022-10-16T15:51:26;3.03;;;1.70;;
56860;SDS011;42744;51.094;3.490;2022-10-16T15:53:57;6.03;;;1.53;;
56860;SDS011;42744;51.094;3.490;2022-10-16T15:56:24;4.57;;;1.30;;
56860;SDS011;42744;51.094;3.490;2022-10-16T15:58:54;5.40;;;2.83;;
56860;SDS011;42744;51.094;3.490;2022-10-16T16:01:20;8.93;;;3.67;;
56860;SDS011;42744;51.094;3.490;2022-10-16T16:03:47;10.50;;;6.97;;
56860;SDS011;42744;51.094;3.490;2022-10-16T16:06:13;12.27;;;7.00;;
56860;SDS011;42744;51.094;3.490;2022-10-16T16:08:39;17.77;;;11.63;;
56860;SDS011;42744;51.094;3.490;2022-10-16T16:11:07;26.37;;;15.90;;
56860;SDS011;42744;51.094;3.490;2022-10-16T16:13:34;23.27;;;12.80;;
56860;SDS011;42744;51.094;3.490;2022-10-16T16:16:07;17.13;;;10.10;;
56860;SDS011;42744;51.094;3.490;2022-10-16T16:18:34;12.30;;;5.43;;
56860;SDS011;42744;51.094;3.490;2022-10-16T16:21:01;15.97;;;6.13;;
56860;SDS011;42744;51.094;3.490;2022-10-16T16:23:27;7.90;;;4.80;;
56860;SDS011;42744;51.094;3.490;2022-10-16T16:26:04;12.13;;;4.53;;
56860;SDS011;42744;51.094;3.490;2022-10-16T16:28:31;10.00;;;4.00;;
56860;SDS011;42744;51.094;3.490;2022-10-16T16:30:58;6.73;;;3.57;;
56860;SDS011;42744;51.094;3.490;2022-10-16T16:33:24;4.43;;;1.93;;
56860;SDS011;42744;51.094;3.490;2022-10-16T16:35:49;6.10;;;2.37;;
56860;SDS011;42744;51.094;3.490;2022-10-16T16:38:16;6.77;;;2.97;;
56860;SDS011;42744;51.094;3.490;2022-10-16T16:40:42;4.03;;;2.17;;
56860;SDS011;42744;51.094;3.490;2022-10-16T16:43:08;17.30;;;3.27;;
56860;SDS011;42744;51.094;3.490;2022-10-16T16:45:37;5.07;;;2.37;;
56860;SDS011;42744;51.094;3.490;2022-10-16T16:48:02;5.60;;;2.77;;
56860;SDS011;42744;51.094;3.490;2022-10-16T16:50:32;5.57;;;2.37;;
56860;SDS011;42744;51.094;3.490;2022-10-16T16:53:01;3.23;;;2.50;;
56860;SDS011;42744;51.094;3.490;2022-10-16T16:55:26;5.33;;;2.80;;
56860;SDS011;42744;51.094;3.490;2022-10-16T16:57:52;4.60;;;2.97;;
56860;SDS011;42744;51.094;3.490;2022-10-16T17:00:19;7.33;;;3.40;;
56860;SDS011;42744;51.094;3.490;2022-10-16T17:02:47;4.00;;;2.60;;
56860;SDS011;42744;51.094;3.490;2022-10-16T17:05:17;4.70;;;4.07;;
56860;SDS011;42744;51.094;3.490;2022-10-16T17:07:44;8.00;;;4.10;;
56860;SDS011;42744;51.094;3.490;2022-10-16T17:10:09;7.80;;;4.23;;